sensor_id;sensor_type;location;lat;lon;timestamp;temperature;humidity
3684;DHT22;1858;48.716;9.648;2022-10-17T00:02:19;14.50;99.90
3684;DHT22;1858;48.716;9.648;2022-10-17T00:04:47;14.40;99.90
3684;DHT22;1858;48.716;9.648;2022-10-17T00:07:16;14.40;99.90
3684;DHT22;1858;48.716;9.648;2022-10-17T00:10:07;14.40;99.90
3684;DHT22;1858;48.716;9.648;2022-10-17T00:12:34;14.20;99.90
3684;DHT22;1858;48.716;9.648;2022-10-17T00:15:04;14.20;99.90
3684;DHT22;1858;48.716;9.648;2022-10-17T00:17:33;14.20;99.90
3684;DHT22;1858;48.716;9.648;2022-10-17T00:20:03;14.10;99.90
3684;DHT22;1858;48.716;9.648;2022-10-17T00:22:50;14.10;99.90
3684;DHT22;1858;48.716;9.648;2022-10-17T00:25:19;14.10;99.90
3684;DHT22;1858;48.716;9.648;2022-10-17T00:27:47;14.10;99.90
3684;DHT22;1858;48.716;9.648;2022-10-17T00:30:35;14.10;99.90
3684;DHT22;1858;48.716;9.648;2022-10-17T00:33:04;14.10;99.90
3684;DHT22;1858;48.716;9.648;2022-10-17T00:35:33;14.00;1.00
3684;DHT22;1858;48.716;9.648;2022-10-17T00:38:01;14.00;1.00
3684;DHT22;1858;48.716;9.648;2022-10-17T00:40:29;14.00;1.00
3684;DHT22;1858;48.716;9.648;2022-10-17T00:42:58;14.00;1.00
3684;DHT22;1858;48.716;9.648;2022-10-17T00:45:29;13.90;1.00
3684;DHT22;1858;48.716;9.648;2022-10-17T00:48:00;13.90;1.00
3684;DHT22;1858;48.716;9.648;2022-10-17T00:50:30;13.80;1.00
3684;DHT22;1858;48.716;9.648;2022-10-17T00:53:00;13.80;1.00
3684;DHT22;1858;48.716;9.648;2022-10-17T00:58:19;13.80;1.00
3684;DHT22;1858;48.716;9.648;2022-10-17T01:00:48;13.70;1.00
3684;DHT22;1858;48.716;9.648;2022-10-17T01:03:16;13.70;1.00
3684;DHT22;1858;48.716;9.648;2022-10-17T01:05:45;13.60;1.00
3684;DHT22;1858;48.716;9.648;2022-10-17T01:08:14;13.60;1.00
3684;DHT22;1858;48.716;9.648;2022-10-17T01:10:57;13.60;1.00
3684;DHT22;1858;48.716;9.648;2022-10-17T01:16:27;13.60;1.00
3684;DHT22;1858;48.716;9.648;2022-10-17T01:19:30;13.50;1.00
3684;DHT22;1858;48.716;9.648;2022-10-17T01:21:55;13.50;1.00
3684;DHT22;1858;48.716;9.648;2022-10-17T01:27:25;13.50;1.00
3684;DHT22;1858;48.716;9.648;2022-10-17T01:30:40;13.40;1.00
3684;DHT22;1858;48.716;9.648;2022-10-17T01:33:11;13.40;1.00
3684;DHT22;1858;48.716;9.648;2022-10-17T01:35:38;13.20;1.00
3684;DHT22;1858;48.716;9.648;2022-10-17T01:38:19;13.20;1.00
3684;DHT22;1858;48.716;9.648;2022-10-17T01:43:43;13.20;1.00
3684;DHT22;1858;48.716;9.648;2022-10-17T01:46:38;13.20;1.00
3684;DHT22;1858;48.716;9.648;2022-10-17T01:49:08;13.10;1.00
3684;DHT22;1858;48.716;9.648;2022-10-17T01:51:54;13.20;1.00
3684;DHT22;1858;48.716;9.648;2022-10-17T01:54:31;13.10;1.00
3684;DHT22;1858;48.716;9.648;2022-10-17T01:56:57;13.10;1.00
3684;DHT22;1858;48.716;9.648;2022-10-17T01:59:30;13.10;1.00
3684;DHT22;1858;48.716;9.648;2022-10-17T02:01:58;13.10;1.00
3684;DHT22;1858;48.716;9.648;2022-10-17T02:04:28;13.10;1.00
3684;DHT22;1858;48.716;9.648;2022-10-17T02:06:56;13.00;1.00
3684;DHT22;1858;48.716;9.648;2022-10-17T02:09:26;13.00;1.00
3684;DHT22;1858;48.716;9.648;2022-10-17T02:17:49;12.90;1.00
3684;DHT22;1858;48.716;9.648;2022-10-17T02:26:13;12.90;1.00
3684;DHT22;1858;48.716;9.648;2022-10-17T02:28:44;12.90;1.00
3684;DHT22;1858;48.716;9.648;2022-10-17T02:31:21;12.80;1.00
3684;DHT22;1858;48.716;9.648;2022-10-17T02:34:01;12.80;1.00
3684;DHT22;1858;48.716;9.648;2022-10-17T02:36:29;12.80;1.00
3684;DHT22;1858;48.716;9.648;2022-10-17T02:39:00;12.80;1.00
3684;DHT22;1858;48.716;9.648;2022-10-17T02:41:31;12.70;1.00
3684;DHT22;1858;48.716;9.648;2022-10-17T02:46:53;12.70;1.00
3684;DHT22;1858;48.716;9.648;2022-10-17T02:49:27;12.70;99.90
3684;DHT22;1858;48.716;9.648;2022-10-17T02:52:24;12.70;99.90
3684;DHT22;1858;48.716;9.648;2022-10-17T02:54:53;12.70;99.90
3684;DHT22;1858;48.716;9.648;2022-10-17T02:57:47;12.80;99.90
3684;DHT22;1858;48.716;9.648;2022-10-17T03:00:16;12.80;99.90
3684;DHT22;1858;48.716;9.648;2022-10-17T03:02:48;12.70;99.90
3684;DHT22;1858;48.716;9.648;2022-10-17T03:05:22;12.70;43.50
3684;DHT22;1858;48.716;9.648;2022-10-17T03:07:52;12.70;99.90
3684;DHT22;1858;48.716;9.648;2022-10-17T03:10:21;12.60;99.90
3684;DHT22;1858;48.716;9.648;2022-10-17T03:12:49;12.50;47.80
3684;DHT22;1858;48.716;9.648;2022-10-17T03:15:18;12.60;99.90
3684;DHT22;1858;48.716;9.648;2022-10-17T03:18:05;12.50;99.90
3684;DHT22;1858;48.716;9.648;2022-10-17T03:20:34;12.50;91.30
3684;DHT22;1858;48.716;9.648;2022-10-17T03:23:02;12.40;38.50
3684;DHT22;1858;48.716;9.648;2022-10-17T03:25:31;12.30;1.00
3684;DHT22;1858;48.716;9.648;2022-10-17T03:27:59;12.30;85.30
3684;DHT22;1858;48.716;9.648;2022-10-17T03:30:28;12.30;99.90
3684;DHT22;1858;48.716;9.648;2022-10-17T03:32:57;12.20;99.90
3684;DHT22;1858;48.716;9.648;2022-10-17T03:35:26;12.30;99.90
3684;DHT22;1858;48.716;9.648;2022-10-17T03:37:55;12.30;76.70
3684;DHT22;1858;48.716;9.648;2022-10-17T03:40:23;12.30;1.00
3684;DHT22;1858;48.716;9.648;2022-10-17T03:43:11;12.30;1.00
3684;DHT22;1858;48.716;9.648;2022-10-17T03:45:39;12.30;1.00
3684;DHT22;1858;48.716;9.648;2022-10-17T03:48:08;12.20;1.00
3684;DHT22;1858;48.716;9.648;2022-10-17T03:50:49;12.20;1.00
3684;DHT22;1858;48.716;9.648;2022-10-17T03:53:18;12.20;1.00
3684;DHT22;1858;48.716;9.648;2022-10-17T03:55:46;12.20;1.00
3684;DHT22;1858;48.716;9.648;2022-10-17T03:58:14;12.20;1.00
3684;DHT22;1858;48.716;9.648;2022-10-17T04:00:43;12.10;1.00
3684;DHT22;1858;48.716;9.648;2022-10-17T04:03:11;12.10;1.00
3684;DHT22;1858;48.716;9.648;2022-10-17T04:05:59;12.20;1.00
3684;DHT22;1858;48.716;9.648;2022-10-17T04:08:28;12.10;1.00
3684;DHT22;1858;48.716;9.648;2022-10-17T04:11:06;12.10;1.00
3684;DHT22;1858;48.716;9.648;2022-10-17T04:16:21;12.00;1.00
3684;DHT22;1858;48.716;9.648;2022-10-17T04:19:09;12.00;1.00
3684;DHT22;1858;48.716;9.648;2022-10-17T04:21:39;12.00;1.00
3684;DHT22;1858;48.716;9.648;2022-10-17T04:24:26;12.00;13.80
3684;DHT22;1858;48.716;9.648;2022-10-17T04:26:55;12.00;56.20
3684;DHT22;1858;48.716;9.648;2022-10-17T04:32:12;12.00;22.50
3684;DHT22;1858;48.716;9.648;2022-10-17T04:35:02;12.00;1.00
3684;DHT22;1858;48.716;9.648;2022-10-17T04:37:30;12.00;1.00
3684;DHT22;1858;48.716;9.648;2022-10-17T04:40:18;12.00;1.00
3684;DHT22;1858;48.716;9.648;2022-10-17T04:42:47;11.90;3.10
3684;DHT22;1858;48.716;9.648;2022-10-17T04:45:15;11.90;1.00
3684;DHT22;1858;48.716;9.648;2022-10-17T04:47:57;11.90;1.00
3684;DHT22;1858;48.716;9.648;2022-10-17T04:50:54;11.90;1.00
3684;DHT22;1858;48.716;9.648;2022-10-17T04:53:23;11.90;1.00
3684;DHT22;1858;48.716;9.648;2022-10-17T04:55:52;11.90;1.00
3684;DHT22;1858;48.716;9.648;2022-10-17T04:58:40;11.90;1.00
3684;DHT22;1858;48.716;9.648;2022-10-17T05:03:58;11.90;1.00
3684;DHT22;1858;48.716;9.648;2022-10-17T05:06:26;11.90;1.00
3684;DHT22;1858;48.716;9.648;2022-10-17T05:08:55;11.90;1.00
3684;DHT22;1858;48.716;9.648;2022-10-17T05:11:44;11.80;1.00
3684;DHT22;1858;48.716;9.648;2022-10-17T05:14:12;11.80;1.00
3684;DHT22;1858;48.716;9.648;2022-10-17T05:16:40;11.80;1.00
3684;DHT22;1858;48.716;9.648;2022-10-17T05:19:09;11.70;1.00
3684;DHT22;1858;48.716;9.648;2022-10-17T05:21:38;11.70;1.00
3684;DHT22;1858;48.716;9.648;2022-10-17T05:24:07;11.70;1.00
3684;DHT22;1858;48.716;9.648;2022-10-17T05:26:55;11.60;1.00
3684;DHT22;1858;48.716;9.648;2022-10-17T05:29:24;11.60;1.00
3684;DHT22;1858;48.716;9.648;2022-10-17T05:31:52;11.60;1.00
3684;DHT22;1858;48.716;9.648;2022-10-17T05:34:21;11.50;1.00
3684;DHT22;1858;48.716;9.648;2022-10-17T05:36:49;11.50;1.00
3684;DHT22;1858;48.716;9.648;2022-10-17T05:39:37;11.50;1.00
3684;DHT22;1858;48.716;9.648;2022-10-17T05:42:06;11.40;1.00
3684;DHT22;1858;48.716;9.648;2022-10-17T05:44:35;11.40;1.00
3684;DHT22;1858;48.716;9.648;2022-10-17T05:47:05;11.40;1.00
3684;DHT22;1858;48.716;9.648;2022-10-17T05:49:33;11.40;1.00
3684;DHT22;1858;48.716;9.648;2022-10-17T05:52:02;11.40;1.00
3684;DHT22;1858;48.716;9.648;2022-10-17T05:54:31;11.40;1.00
3684;DHT22;1858;48.716;9.648;2022-10-17T05:56:59;11.40;1.00
3684;DHT22;1858;48.716;9.648;2022-10-17T05:59:27;11.40;1.00
3684;DHT22;1858;48.716;9.648;2022-10-17T06:01:56;11.50;1.00
3684;DHT22;1858;48.716;9.648;2022-10-17T06:04:24;11.50;1.00
3684;DHT22;1858;48.716;9.648;2022-10-17T06:06:54;11.50;1.00
3684;DHT22;1858;48.716;9.648;2022-10-17T06:09:22;11.50;1.00
3684;DHT22;1858;48.716;9.648;2022-10-17T06:11:51;11.50;1.00
3684;DHT22;1858;48.716;9.648;2022-10-17T06:14:19;11.50;1.00
3684;DHT22;1858;48.716;9.648;2022-10-17T06:16:48;11.50;1.00
3684;DHT22;1858;48.716;9.648;2022-10-17T06:19:16;11.40;1.00
3684;DHT22;1858;48.716;9.648;2022-10-17T06:22:04;11.50;1.00
3684;DHT22;1858;48.716;9.648;2022-10-17T06:24:32;11.50;1.00
3684;DHT22;1858;48.716;9.648;2022-10-17T06:27:13;11.60;1.00
3684;DHT22;1858;48.716;9.648;2022-10-17T06:29:41;11.60;1.00
3684;DHT22;1858;48.716;9.648;2022-10-17T06:32:10;11.70;1.00
3684;DHT22;1858;48.716;9.648;2022-10-17T06:34:38;11.80;1.00
3684;DHT22;1858;48.716;9.648;2022-10-17T06:37:06;11.80;1.00
3684;DHT22;1858;48.716;9.648;2022-10-17T06:39:35;11.90;1.00
3684;DHT22;1858;48.716;9.648;2022-10-17T06:42:04;11.90;1.00
3684;DHT22;1858;48.716;9.648;2022-10-17T06:44:32;12.00;1.00
3684;DHT22;1858;48.716;9.648;2022-10-17T06:47:01;12.10;1.00
3684;DHT22;1858;48.716;9.648;2022-10-17T06:49:29;12.10;3.10
3684;DHT22;1858;48.716;9.648;2022-10-17T06:51:59;12.20;41.10
3684;DHT22;1858;48.716;9.648;2022-10-17T06:54:27;12.20;31.50
3684;DHT22;1858;48.716;9.648;2022-10-17T06:56:56;12.10;99.90
3684;DHT22;1858;48.716;9.648;2022-10-17T06:59:24;12.10;99.90
3684;DHT22;1858;48.716;9.648;2022-10-17T07:01:52;12.10;99.90
3684;DHT22;1858;48.716;9.648;2022-10-17T07:04:21;12.20;99.90
3684;DHT22;1858;48.716;9.648;2022-10-17T07:06:49;12.20;99.90
3684;DHT22;1858;48.716;9.648;2022-10-17T07:09:18;12.30;99.90
3684;DHT22;1858;48.716;9.648;2022-10-17T07:11:47;12.40;99.90
3684;DHT22;1858;48.716;9.648;2022-10-17T07:14:15;12.50;99.90
3684;DHT22;1858;48.716;9.648;2022-10-17T07:16:43;12.50;99.90
3684;DHT22;1858;48.716;9.648;2022-10-17T07:19:12;12.60;99.90
3684;DHT22;1858;48.716;9.648;2022-10-17T07:21:40;12.60;99.90
3684;DHT22;1858;48.716;9.648;2022-10-17T07:24:09;12.70;99.90
3684;DHT22;1858;48.716;9.648;2022-10-17T07:26:37;12.90;99.90
3684;DHT22;1858;48.716;9.648;2022-10-17T07:29:25;13.00;99.90
3684;DHT22;1858;48.716;9.648;2022-10-17T07:31:53;13.10;99.90
3684;DHT22;1858;48.716;9.648;2022-10-17T07:34:41;13.20;1.00
3684;DHT22;1858;48.716;9.648;2022-10-17T07:37:09;13.30;99.90
3684;DHT22;1858;48.716;9.648;2022-10-17T07:39:38;13.50;99.90
3684;DHT22;1858;48.716;9.648;2022-10-17T07:42:06;13.60;99.90
3684;DHT22;1858;48.716;9.648;2022-10-17T07:44:35;13.70;99.90
3684;DHT22;1858;48.716;9.648;2022-10-17T07:47:03;13.80;99.90
3684;DHT22;1858;48.716;9.648;2022-10-17T07:49:31;13.90;99.90
3684;DHT22;1858;48.716;9.648;2022-10-17T07:52:00;14.10;99.90
3684;DHT22;1858;48.716;9.648;2022-10-17T07:54:28;14.20;99.90
3684;DHT22;1858;48.716;9.648;2022-10-17T07:56:56;14.40;99.90
3684;DHT22;1858;48.716;9.648;2022-10-17T07:59:25;14.50;99.90
3684;DHT22;1858;48.716;9.648;2022-10-17T08:01:56;14.60;99.90
3684;DHT22;1858;48.716;9.648;2022-10-17T08:04:26;14.70;99.90
3684;DHT22;1858;48.716;9.648;2022-10-17T08:06:55;14.90;26.50
3684;DHT22;1858;48.716;9.648;2022-10-17T08:09:23;15.10;1.00
3684;DHT22;1858;48.716;9.648;2022-10-17T08:11:52;15.30;1.00
3684;DHT22;1858;48.716;9.648;2022-10-17T08:14:20;15.40;1.00
3684;DHT22;1858;48.716;9.648;2022-10-17T08:16:48;15.60;1.00
3684;DHT22;1858;48.716;9.648;2022-10-17T08:19:17;15.70;1.00
3684;DHT22;1858;48.716;9.648;2022-10-17T08:21:45;15.90;99.90
3684;DHT22;1858;48.716;9.648;2022-10-17T08:24:13;16.00;99.90
3684;DHT22;1858;48.716;9.648;2022-10-17T08:26:42;16.20;99.90
3684;DHT22;1858;48.716;9.648;2022-10-17T08:29:14;16.40;1.00
3684;DHT22;1858;48.716;9.648;2022-10-17T08:31:42;16.50;1.00
3684;DHT22;1858;48.716;9.648;2022-10-17T08:34:11;16.70;1.00
3684;DHT22;1858;48.716;9.648;2022-10-17T08:36:39;16.80;1.00
3684;DHT22;1858;48.716;9.648;2022-10-17T08:39:07;17.00;1.00
3684;DHT22;1858;48.716;9.648;2022-10-17T08:44:48;18.20;1.00
3684;DHT22;1858;48.716;9.648;2022-10-17T08:59:01;26.30;1.00
3684;DHT22;1858;48.716;9.648;2022-10-17T09:01:34;27.80;1.00
3684;DHT22;1858;48.716;9.648;2022-10-17T09:07:12;30.30;99.90
3684;DHT22;1858;48.716;9.648;2022-10-17T09:10:02;31.40;99.90
3684;DHT22;1858;48.716;9.648;2022-10-17T09:12:36;31.80;99.90
3684;DHT22;1858;48.716;9.648;2022-10-17T09:18:12;31.70;99.90
3684;DHT22;1858;48.716;9.648;2022-10-17T09:20:48;32.10;99.90
3684;DHT22;1858;48.716;9.648;2022-10-17T09:23:39;32.00;99.90
3684;DHT22;1858;48.716;9.648;2022-10-17T09:26:07;31.90;99.90
3684;DHT22;1858;48.716;9.648;2022-10-17T09:28:38;31.80;99.90
3684;DHT22;1858;48.716;9.648;2022-10-17T09:31:22;30.90;99.90
3684;DHT22;1858;48.716;9.648;2022-10-17T09:34:09;31.00;99.90
3684;DHT22;1858;48.716;9.648;2022-10-17T09:36:39;31.50;99.90
3684;DHT22;1858;48.716;9.648;2022-10-17T09:39:13;31.90;99.90
3684;DHT22;1858;48.716;9.648;2022-10-17T09:44:46;32.60;99.90
3684;DHT22;1858;48.716;9.648;2022-10-17T09:50:33;32.90;99.90
3684;DHT22;1858;48.716;9.648;2022-10-17T09:53:22;32.70;99.90
3684;DHT22;1858;48.716;9.648;2022-10-17T09:56:12;32.60;99.90
3684;DHT22;1858;48.716;9.648;2022-10-17T09:59:01;32.30;99.90
3684;DHT22;1858;48.716;9.648;2022-10-17T10:01:31;32.00;99.90
3684;DHT22;1858;48.716;9.648;2022-10-17T10:04:20;31.60;99.90
3684;DHT22;1858;48.716;9.648;2022-10-17T10:09:50;31.40;99.90
3684;DHT22;1858;48.716;9.648;2022-10-17T10:12:22;31.10;99.90
3684;DHT22;1858;48.716;9.648;2022-10-17T10:14:50;31.20;99.90
3684;DHT22;1858;48.716;9.648;2022-10-17T10:17:39;31.10;99.90
3684;DHT22;1858;48.716;9.648;2022-10-17T10:20:36;30.70;99.90
3684;DHT22;1858;48.716;9.648;2022-10-17T10:23:17;30.40;99.90
3684;DHT22;1858;48.716;9.648;2022-10-17T10:25:55;30.00;99.90
3684;DHT22;1858;48.716;9.648;2022-10-17T10:28:50;29.50;99.90
3684;DHT22;1858;48.716;9.648;2022-10-17T10:31:14;28.80;99.90
3684;DHT22;1858;48.716;9.648;2022-10-17T10:33:43;28.10;99.90
3684;DHT22;1858;48.716;9.648;2022-10-17T10:36:11;27.50;99.90
3684;DHT22;1858;48.716;9.648;2022-10-17T10:38:40;27.10;99.90
3684;DHT22;1858;48.716;9.648;2022-10-17T10:41:10;27.00;99.90
3684;DHT22;1858;48.716;9.648;2022-10-17T10:43:46;26.80;99.90
3684;DHT22;1858;48.716;9.648;2022-10-17T10:46:34;26.60;99.90
3684;DHT22;1858;48.716;9.648;2022-10-17T10:49:03;26.30;99.90
3684;DHT22;1858;48.716;9.648;2022-10-17T10:54:31;25.90;99.90
3684;DHT22;1858;48.716;9.648;2022-10-17T10:57:00;25.90;99.90
3684;DHT22;1858;48.716;9.648;2022-10-17T11:00:03;25.70;99.90
3684;DHT22;1858;48.716;9.648;2022-10-17T11:02:32;25.50;99.90
3684;DHT22;1858;48.716;9.648;2022-10-17T11:08:12;25.30;99.90
3684;DHT22;1858;48.716;9.648;2022-10-17T11:10:48;25.30;99.90
3684;DHT22;1858;48.716;9.648;2022-10-17T11:13:19;25.40;99.90
3684;DHT22;1858;48.716;9.648;2022-10-17T11:15:53;25.30;99.90
3684;DHT22;1858;48.716;9.648;2022-10-17T11:18:25;25.40;99.90
3684;DHT22;1858;48.716;9.648;2022-10-17T11:20:59;25.60;99.90
3684;DHT22;1858;48.716;9.648;2022-10-17T11:23:47;25.90;99.90
3684;DHT22;1858;48.716;9.648;2022-10-17T11:26:28;25.80;99.90
3684;DHT22;1858;48.716;9.648;2022-10-17T11:31:49;26.10;99.90
3684;DHT22;1858;48.716;9.648;2022-10-17T11:34:26;26.10;99.90
3684;DHT22;1858;48.716;9.648;2022-10-17T11:37:01;26.10;99.90
3684;DHT22;1858;48.716;9.648;2022-10-17T11:40:14;26.20;99.90
3684;DHT22;1858;48.716;9.648;2022-10-17T11:42:58;26.00;99.90
3684;DHT22;1858;48.716;9.648;2022-10-17T11:45:29;26.00;99.90
3684;DHT22;1858;48.716;9.648;2022-10-17T11:48:09;26.00;99.90
3684;DHT22;1858;48.716;9.648;2022-10-17T11:50:34;25.80;99.90
3684;DHT22;1858;48.716;9.648;2022-10-17T11:53:08;25.60;99.90
3684;DHT22;1858;48.716;9.648;2022-10-17T11:55:35;25.60;99.90
3684;DHT22;1858;48.716;9.648;2022-10-17T12:09:50;25.30;1.40
3684;DHT22;1858;48.716;9.648;2022-10-17T12:12:36;25.10;99.90
3684;DHT22;1858;48.716;9.648;2022-10-17T12:18:00;24.90;99.90
3684;DHT22;1858;48.716;9.648;2022-10-17T12:23:35;24.70;1.00
3684;DHT22;1858;48.716;9.648;2022-10-17T12:26:07;24.80;1.00
3684;DHT22;1858;48.716;9.648;2022-10-17T12:31:31;24.90;1.00
3684;DHT22;1858;48.716;9.648;2022-10-17T12:34:03;24.90;1.00
3684;DHT22;1858;48.716;9.648;2022-10-17T12:49:51;25.00;99.90
3684;DHT22;1858;48.716;9.648;2022-10-17T12:54:56;25.10;99.90
3684;DHT22;1858;48.716;9.648;2022-10-17T12:57:48;25.10;99.90
3684;DHT22;1858;48.716;9.648;2022-10-17T13:00:36;25.10;99.90
3684;DHT22;1858;48.716;9.648;2022-10-17T13:03:17;25.10;99.90
3684;DHT22;1858;48.716;9.648;2022-10-17T13:05:51;25.20;99.90
3684;DHT22;1858;48.716;9.648;2022-10-17T13:08:28;25.20;99.90
3684;DHT22;1858;48.716;9.648;2022-10-17T13:11:11;25.20;99.90
3684;DHT22;1858;48.716;9.648;2022-10-17T13:13:46;25.30;99.90
3684;DHT22;1858;48.716;9.648;2022-10-17T13:16:49;25.30;99.90
3684;DHT22;1858;48.716;9.648;2022-10-17T13:19:15;25.30;99.90
3684;DHT22;1858;48.716;9.648;2022-10-17T13:24:40;25.30;99.90
3684;DHT22;1858;48.716;9.648;2022-10-17T13:27:24;25.20;99.90
3684;DHT22;1858;48.716;9.648;2022-10-17T13:29:53;25.30;99.90
3684;DHT22;1858;48.716;9.648;2022-10-17T13:32:36;25.20;99.90
3684;DHT22;1858;48.716;9.648;2022-10-17T13:35:08;25.30;99.90
3684;DHT22;1858;48.716;9.648;2022-10-17T13:37:39;25.30;99.90
3684;DHT22;1858;48.716;9.648;2022-10-17T13:40:16;25.30;99.90
3684;DHT22;1858;48.716;9.648;2022-10-17T13:42:45;25.30;99.90
3684;DHT22;1858;48.716;9.648;2022-10-17T13:45:20;25.30;99.90
3684;DHT22;1858;48.716;9.648;2022-10-17T13:47:48;25.30;99.90
3684;DHT22;1858;48.716;9.648;2022-10-17T13:50:37;25.30;99.90
3684;DHT22;1858;48.716;9.648;2022-10-17T13:58:50;25.40;99.90
3684;DHT22;1858;48.716;9.648;2022-10-17T14:01:19;25.40;99.90
3684;DHT22;1858;48.716;9.648;2022-10-17T14:03:48;25.30;99.90
3684;DHT22;1858;48.716;9.648;2022-10-17T14:09:05;25.20;99.90
3684;DHT22;1858;48.716;9.648;2022-10-17T14:11:39;25.00;99.90
3684;DHT22;1858;48.716;9.648;2022-10-17T14:14:27;24.90;99.90
3684;DHT22;1858;48.716;9.648;2022-10-17T14:16:56;24.90;99.90
3684;DHT22;1858;48.716;9.648;2022-10-17T14:24:51;24.90;99.90
3684;DHT22;1858;48.716;9.648;2022-10-17T14:28:14;24.90;99.90
3684;DHT22;1858;48.716;9.648;2022-10-17T14:30:33;24.90;99.90
3684;DHT22;1858;48.716;9.648;2022-10-17T14:33:04;24.90;99.90
3684;DHT22;1858;48.716;9.648;2022-10-17T14:35:33;24.90;99.90
3684;DHT22;1858;48.716;9.648;2022-10-17T14:41:06;24.80;99.90
3684;DHT22;1858;48.716;9.648;2022-10-17T14:44:00;24.60;99.90
3684;DHT22;1858;48.716;9.648;2022-10-17T14:46:51;24.60;99.90
3684;DHT22;1858;48.716;9.648;2022-10-17T14:49:39;24.50;99.90
3684;DHT22;1858;48.716;9.648;2022-10-17T14:57:42;24.20;99.90
3684;DHT22;1858;48.716;9.648;2022-10-17T15:03:23;24.00;99.90
3684;DHT22;1858;48.716;9.648;2022-10-17T15:05:53;23.80;99.90
3684;DHT22;1858;48.716;9.648;2022-10-17T15:08:23;23.80;99.90
3684;DHT22;1858;48.716;9.648;2022-10-17T15:10:52;23.60;1.00
3684;DHT22;1858;48.716;9.648;2022-10-17T15:13:20;23.50;1.00
3684;DHT22;1858;48.716;9.648;2022-10-17T15:15:48;23.50;1.00
3684;DHT22;1858;48.716;9.648;2022-10-17T15:18:18;23.40;1.00
3684;DHT22;1858;48.716;9.648;2022-10-17T15:21:13;23.30;1.00
3684;DHT22;1858;48.716;9.648;2022-10-17T15:23:41;23.20;1.00
3684;DHT22;1858;48.716;9.648;2022-10-17T15:26:30;22.90;1.00
3684;DHT22;1858;48.716;9.648;2022-10-17T15:28:59;22.90;1.00
3684;DHT22;1858;48.716;9.648;2022-10-17T15:31:47;22.80;1.00
3684;DHT22;1858;48.716;9.648;2022-10-17T15:34:15;22.70;1.00
3684;DHT22;1858;48.716;9.648;2022-10-17T15:37:03;22.70;1.00
3684;DHT22;1858;48.716;9.648;2022-10-17T15:39:52;22.60;1.00
3684;DHT22;1858;48.716;9.648;2022-10-17T15:42:28;22.60;1.00
3684;DHT22;1858;48.716;9.648;2022-10-17T15:44:57;22.50;1.00
3684;DHT22;1858;48.716;9.648;2022-10-17T15:47:30;22.30;1.00
3684;DHT22;1858;48.716;9.648;2022-10-17T15:50:21;22.30;1.00
3684;DHT22;1858;48.716;9.648;2022-10-17T15:52:50;22.20;1.00
3684;DHT22;1858;48.716;9.648;2022-10-17T15:55:37;22.10;1.00
3684;DHT22;1858;48.716;9.648;2022-10-17T15:58:09;22.10;1.00
3684;DHT22;1858;48.716;9.648;2022-10-17T16:00:36;22.00;1.00
3684;DHT22;1858;48.716;9.648;2022-10-17T16:03:04;22.00;1.00
3684;DHT22;1858;48.716;9.648;2022-10-17T16:05:32;21.90;1.00
3684;DHT22;1858;48.716;9.648;2022-10-17T16:08:01;21.90;1.00
3684;DHT22;1858;48.716;9.648;2022-10-17T16:10:49;21.80;1.00
3684;DHT22;1858;48.716;9.648;2022-10-17T16:13:19;21.70;1.00
3684;DHT22;1858;48.716;9.648;2022-10-17T16:15:49;21.60;1.00
3684;DHT22;1858;48.716;9.648;2022-10-17T16:18:17;21.50;1.00
3684;DHT22;1858;48.716;9.648;2022-10-17T16:20:47;21.40;1.00
3684;DHT22;1858;48.716;9.648;2022-10-17T16:23:15;21.30;1.00
3684;DHT22;1858;48.716;9.648;2022-10-17T16:25:44;21.20;1.00
3684;DHT22;1858;48.716;9.648;2022-10-17T16:28:12;21.10;1.00
3684;DHT22;1858;48.716;9.648;2022-10-17T16:33:30;20.80;1.00
3684;DHT22;1858;48.716;9.648;2022-10-17T16:35:58;20.70;16.40
3684;DHT22;1858;48.716;9.648;2022-10-17T16:38:46;20.60;29.80
3684;DHT22;1858;48.716;9.648;2022-10-17T16:41:35;20.50;54.90
3684;DHT22;1858;48.716;9.648;2022-10-17T16:44:06;20.30;81.20
3684;DHT22;1858;48.716;9.648;2022-10-17T16:46:54;20.20;95.30
3684;DHT22;1858;48.716;9.648;2022-10-17T16:49:23;20.10;99.90
3684;DHT22;1858;48.716;9.648;2022-10-17T16:52:11;20.00;99.90
3684;DHT22;1858;48.716;9.648;2022-10-17T16:54:39;19.90;99.90
3684;DHT22;1858;48.716;9.648;2022-10-17T16:57:08;19.80;99.90
3684;DHT22;1858;48.716;9.648;2022-10-17T16:59:55;19.60;99.90
3684;DHT22;1858;48.716;9.648;2022-10-17T17:02:24;19.60;99.90
3684;DHT22;1858;48.716;9.648;2022-10-17T17:05:12;19.50;99.90
3684;DHT22;1858;48.716;9.648;2022-10-17T17:07:40;19.40;99.90
3684;DHT22;1858;48.716;9.648;2022-10-17T17:10:28;19.30;99.90
3684;DHT22;1858;48.716;9.648;2022-10-17T17:12:56;19.20;99.90
3684;DHT22;1858;48.716;9.648;2022-10-17T17:15:24;19.10;99.90
3684;DHT22;1858;48.716;9.648;2022-10-17T17:17:53;19.10;99.90
3684;DHT22;1858;48.716;9.648;2022-10-17T17:20:21;19.00;99.90
3684;DHT22;1858;48.716;9.648;2022-10-17T17:22:50;18.90;99.90
3684;DHT22;1858;48.716;9.648;2022-10-17T17:25:18;18.90;99.90
3684;DHT22;1858;48.716;9.648;2022-10-17T17:27:46;18.70;99.90
3684;DHT22;1858;48.716;9.648;2022-10-17T17:30:15;18.70;99.90
3684;DHT22;1858;48.716;9.648;2022-10-17T17:33:03;18.60;99.90
3684;DHT22;1858;48.716;9.648;2022-10-17T17:35:31;18.50;1.40
3684;DHT22;1858;48.716;9.648;2022-10-17T17:38:00;18.40;1.00
3684;DHT22;1858;48.716;9.648;2022-10-17T17:40:29;18.40;1.00
3684;DHT22;1858;48.716;9.648;2022-10-17T17:42:57;18.30;1.00
3684;DHT22;1858;48.716;9.648;2022-10-17T17:45:26;18.20;1.00
3684;DHT22;1858;48.716;9.648;2022-10-17T17:47:54;18.20;1.00
3684;DHT22;1858;48.716;9.648;2022-10-17T17:50:23;18.00;1.00
3684;DHT22;1858;48.716;9.648;2022-10-17T17:52:51;18.00;1.00
3684;DHT22;1858;48.716;9.648;2022-10-17T17:55:19;17.90;1.00
3684;DHT22;1858;48.716;9.648;2022-10-17T17:57:48;17.80;1.00
3684;DHT22;1858;48.716;9.648;2022-10-17T18:00:16;17.70;1.00
3684;DHT22;1858;48.716;9.648;2022-10-17T18:02:44;17.60;1.00
3684;DHT22;1858;48.716;9.648;2022-10-17T18:05:14;17.50;14.90
3684;DHT22;1858;48.716;9.648;2022-10-17T18:07:42;17.50;21.60
3684;DHT22;1858;48.716;9.648;2022-10-17T18:10:10;17.40;50.70
3684;DHT22;1858;48.716;9.648;2022-10-17T18:12:39;17.40;90.80
3684;DHT22;1858;48.716;9.648;2022-10-17T18:15:07;17.30;97.90
3684;DHT22;1858;48.716;9.648;2022-10-17T18:17:36;17.30;99.90
3684;DHT22;1858;48.716;9.648;2022-10-17T18:20:24;17.30;99.90
3684;DHT22;1858;48.716;9.648;2022-10-17T18:22:59;17.20;99.90
3684;DHT22;1858;48.716;9.648;2022-10-17T18:25:23;17.20;99.90
3684;DHT22;1858;48.716;9.648;2022-10-17T18:27:52;17.20;99.90
3684;DHT22;1858;48.716;9.648;2022-10-17T18:30:39;17.20;99.90
3684;DHT22;1858;48.716;9.648;2022-10-17T18:33:08;17.10;99.90
3684;DHT22;1858;48.716;9.648;2022-10-17T18:35:36;17.10;99.90
3684;DHT22;1858;48.716;9.648;2022-10-17T18:38:24;17.10;99.90
3684;DHT22;1858;48.716;9.648;2022-10-17T18:43:36;17.00;99.90
3684;DHT22;1858;48.716;9.648;2022-10-17T18:48:57;16.90;99.90
3684;DHT22;1858;48.716;9.648;2022-10-17T18:51:26;16.80;99.90
3684;DHT22;1858;48.716;9.648;2022-10-17T18:56:50;16.70;99.90
3684;DHT22;1858;48.716;9.648;2022-10-17T18:59:19;16.60;99.90
3684;DHT22;1858;48.716;9.648;2022-10-17T19:01:48;16.60;99.90
3684;DHT22;1858;48.716;9.648;2022-10-17T19:04:36;16.50;99.90
3684;DHT22;1858;48.716;9.648;2022-10-17T19:07:04;16.50;99.90
3684;DHT22;1858;48.716;9.648;2022-10-17T19:09:52;16.40;99.90
3684;DHT22;1858;48.716;9.648;2022-10-17T19:12:20;16.50;99.90
3684;DHT22;1858;48.716;9.648;2022-10-17T19:14:49;16.40;99.90
3684;DHT22;1858;48.716;9.648;2022-10-17T19:17:19;16.40;99.90
3684;DHT22;1858;48.716;9.648;2022-10-17T19:19:47;16.30;99.90
3684;DHT22;1858;48.716;9.648;2022-10-17T19:22:17;16.30;99.90